TAF AMD CYBK 220311Z 2203/2212 VRB03KT P6SM SKC
PROB30 2203/2208 1/2SM FZFG VV002 RMK NXT FCST BY 220600Z
From batch tds/tafs/production/2024/5/22/h03_m20_tafs.cache.xml.gz
Issued (24 days ago)
Forecasts
2203/2212 VRB03KT 6+SM SKC

---
fcst_time_to: '2024-05-22T12:00:00Z'
sky_condition:
- sky_cover: SKC
wind_speed_kt: '3'
fcst_time_from: '2024-05-22T03:00:00Z'
wind_dir_degrees: VRB
visibility_statute_mi: 6+

OVX

---
wx_string: FZFG
probability: '30'
vert_vis_ft: '200'
fcst_time_to: '2024-05-22T08:00:00Z'
sky_condition:
- sky_cover: OVX
fcst_time_from: '2024-05-22T03:00:00Z'
change_indicator: PROB
visibility_statute_mi: '0.5'

talk